Terminal Aerodrome Forecast
Issued by NWS

Home | Current Version | Previous Version | Text Only | Print | Product List | Glossary On
Versions: 1 2 3 4 5 6 7 8 9 10 11 12 13 14 15 16 17 18 19 20
258
FTUS43 KAPX 131120
TAFTVC
TAF
KTVC 131120Z 1312/1412 15005KT P6SM OVC035
     FM131400 13007KT 1 1/2SM -SN OVC035
     FM132100 07010KT 3/4SM -SN OVC020
     FM132300 05010KT P6SM VCSH BKN020
     FM140100 03011G19KT P6SM VCSH BKN035
     FM140800 01007KT P6SM -SHSN BKN030=

USA.gov is the U.S. government's official web portal to all federal, state and local government web resources and services.